Terminal Aerodrome Forecast
Issued by NWS Cleveland, OH

Home | Current Version | Previous Version | Graphics & Text | Print | Product List | Glossary On
Versions: 1 2 3 4 5 6 7 8 9 10 11 12 13 14 15 16 17 18 19 20 21
000
FTUS41 KCLE 151700
TAFMFD
TAF
KMFD 151737Z 1518/1618 18006KT P6SM SCT040 OVC080
      TEMPO 1519/1521 5SM -RA BR OVC040
     FM152100 22006KT 6SM -RA BR SCT015 OVC040
      TEMPO 1521/1523 4SM -RA BR OVC015
     FM152300 26004KT 4SM -RA BR OVC015
     FM160500 33004KT 2SM BR OVC003
     FM161300 33004KT 4SM BR OVC015
     FM161500 35004KT P6SM SCT030=

USA.gov is the U.S. government's official web portal to all federal, state and local government web resources and services.